Time;durP1;ratioP1;P1;durP2;ratioP2;P2;SDS_P1;SDS_P2;PMS_P1;PMS_P2;Temp;Humidity;BMP_temperature;BMP_pressure;BME280_temperature;BME280_humidity;BME280_pressure;Samples;Min_cycle;Max_cycle;Signal;HPM_P1;HPM_P2
2022/06/21 00:01:18;;;;;;;;;18.67;17.00;;;;;24.72;70.58;98797.69;6285465;20;3556504;-60
2022/06/21 00:03:49;;;;;;;;;20.00;18.00;;;;;24.71;69.90;98795.97;6283825;20;3568987;-60
2022/06/21 00:06:25;;;;;;;;;19.33;17.33;;;;;24.69;70.10;98792.56;6283911;20;2835794;-60
2022/06/21 00:08:54;;;;;;;;;19.00;19.00;;;;;24.68;70.08;98790.91;6317307;20;3571073;-59
2022/06/21 00:11:31;;;;;;;;;20.00;17.00;;;;;24.55;70.80;98779.88;6281107;20;2835706;-60
2022/06/21 00:14:00;;;;;;;;;17.67;17.67;;;;;24.53;70.78;98791.06;6285996;20;3564972;-60
2022/06/21 00:16:31;;;;;;;;;20.00;16.50;;;;;24.50;71.24;98799.69;6283041;20;2831622;-60
2022/06/21 00:19:02;;;;;;;;;17.67;17.00;;;;;24.60;71.59;98799.31;6284784;20;3552410;-60
2022/06/21 00:21:37;;;;;;;;;19.67;17.67;;;;;24.61;71.28;98795.50;6316326;20;3565936;-61
2022/06/21 00:24:06;;;;;;;;;20.00;17.00;;;;;24.52;71.29;98792.13;6284500;20;3573303;-60
2022/06/21 00:26:36;;;;;;;;;18.00;17.67;;;;;24.41;72.03;98784.47;6283566;20;3563849;-62
2022/06/21 00:29:04;;;;;;;;;15.33;14.00;;;;;24.40;72.05;98769.03;6288242;20;3539979;-61
2022/06/21 00:31:36;;;;;;;;;21.00;19.00;;;;;24.41;72.13;98759.75;6319808;20;3566966;-60
2022/06/21 00:34:20;;;;;;;;;21.33;18.67;;;;;24.39;71.69;98755.53;6290118;20;3562712;-61
2022/06/21 00:36:50;;;;;;;;;19.33;17.67;;;;;24.55;71.39;98768.91;6285352;20;3561752;-61
2022/06/21 00:39:20;;;;;;;;;18.00;18.00;;;;;24.53;71.30;98776.50;6282789;20;3566895;-61
2022/06/21 00:42:04;;;;;;;;;19.00;18.00;;;;;24.32;72.26;98786.50;6283833;20;2828416;-61
2022/06/21 00:45:03;;;;;;;;;20.33;17.00;;;;;24.29;72.65;98797.91;6281500;20;2829426;-60
2022/06/21 00:47:53;;;;;;;;;19.33;17.67;;;;;24.25;72.60;98791.16;6317478;20;3554425;-60
2022/06/21 00:50:32;;;;;;;;;18.50;17.00;;;;;24.20;73.55;98801.91;6278047;20;2828368;-60
2022/06/21 00:53:22;;;;;;;;;18.67;18.67;;;;;24.19;73.47;98797.44;6282808;20;2837841;-60
2022/06/21 00:56:26;;;;;;;;;20.33;17.33;;;;;24.09;74.13;98796.97;6311483;20;2483607;-60
2022/06/21 00:58:55;;;;;;;;;21.33;19.00;;;;;23.97;74.23;98798.59;6315894;20;3579387;-61
2022/06/21 01:01:33;;;;;;;;;23.00;19.00;;;;;24.02;73.94;98798.84;6284651;20;3578385;-61
2022/06/21 01:04:10;;;;;;;;;20.67;19.33;;;;;23.89;74.05;98799.63;6284525;20;3573146;-61
2022/06/21 01:06:50;;;;;;;;;22.00;18.50;;;;;23.98;73.19;98795.66;6281204;20;2837775;-57
2022/06/21 01:09:42;;;;;;;;;18.50;18.50;;;;;24.07;71.81;98799.09;6281790;20;2831557;-60
2022/06/21 01:12:29;;;;;;;;;18.00;16.00;;;;;24.11;71.27;98794.88;6283766;20;2828399;-60
2022/06/21 01:15:16;;;;;;;;;15.00;15.00;;;;;24.10;69.67;98794.03;6281663;20;2821109;-61
2022/06/21 01:17:47;;;;;;;;;15.00;15.00;;;;;24.18;68.53;98803.97;6283223;20;2812762;-61
2022/06/21 01:20:23;;;;;;;;;13.00;11.33;;;;;24.18;65.06;98798.50;6284537;20;2782303;-61
2022/06/21 01:23:39;;;;;;;;;14.67;12.67;;;;;24.29;64.06;98810.78;6311239;20;3528384;-60
2022/06/21 01:26:40;;;;;;;;;13.00;11.00;;;;;24.27;62.93;98796.41;6284227;20;3527329;-60
2022/06/21 01:29:21;;;;;;;;;12.00;11.33;;;;;24.31;63.43;98801.28;6280858;20;3523337;-61
2022/06/21 01:31:50;;;;;;;;;13.33;12.00;;;;;24.08;65.82;98800.78;6280713;20;2483758;-59
2022/06/21 01:34:24;;;;;;;;;13.00;13.00;;;;;24.04;65.63;98792.13;6311858;20;2483683;-60
2022/06/21 01:37:15;;;;;;;;;13.00;12.67;;;;;24.11;64.47;98800.34;6316233;20;2798244;-58
2022/06/21 01:39:55;;;;;;;;;15.00;11.67;;;;;24.05;64.35;98784.72;6306606;20;3529513;-58
2022/06/21 01:42:45;;;;;;;;;14.67;13.67;;;;;24.01;63.83;98800.75;6278095;20;3528451;-59
2022/06/21 01:45:31;;;;;;;;;12.00;12.00;;;;;24.18;61.65;98789.44;6280124;20;3521080;-59
2022/06/21 01:48:33;;;;;;;;;10.00;10.00;;;;;24.14;60.60;98799.09;6279144;20;3507672;-61
2022/06/21 01:51:13;;;;;;;;;12.67;11.67;;;;;24.17;60.32;98794.06;6314729;20;2790191;-60
2022/06/21 01:53:42;;;;;;;;;9.00;9.00;;;;;24.16;60.28;98803.34;6310672;20;2750255;-60
2022/06/21 01:56:21;;;;;;;;;7.00;7.00;;;;;24.05;59.85;98812.16;6313752;20;2742043;-61
2022/06/21 01:59:25;;;;;;;;;9.60;8.40;;;;;24.09;58.46;98824.38;6335618;20;2749275;-60
2022/06/21 02:02:20;;;;;;;;;10.33;8.00;;;;;24.06;57.56;98825.63;6281059;20;2767953;-58
2022/06/21 02:05:12;;;;;;;;;24.00;11.33;;;;;23.92;56.86;98832.09;6310815;20;2483650;-60
2022/06/21 02:07:56;;;;;;;;;5.80;5.80;;;;;23.98;57.30;98835.94;6337572;20;2738809;-60
2022/06/21 02:10:48;;;;;;;;;7.20;6.00;;;;;23.97;56.63;98831.50;6301578;20;2746083;-60
2022/06/21 02:14:28;;;;;;;;;7.00;7.00;;;;;23.94;56.43;98841.00;6280649;20;2730817;-60
2022/06/21 02:16:50;;;;;;;;;7.00;6.00;;;;;23.86;56.57;98842.00;6336074;20;1846119;-60
2022/06/21 02:20:29;;;;;;;;;6.20;6.20;;;;;23.76;57.44;98848.88;6305873;20;2742044;-60
2022/06/21 02:23:00;;;;;;;;;7.20;7.20;;;;;23.65;57.93;98853.00;6305036;20;2744020;-59
2022/06/21 02:25:29;;;;;;;;;7.60;6.40;;;;;23.58;58.23;98854.81;6305765;20;2732601;-60
2022/06/21 02:28:07;;;;;;;;;5.20;4.60;;;;;23.38;59.09;98866.47;6339106;20;2736750;-59
2022/06/21 02:30:37;;;;;;;;;6.00;6.00;;;;;23.45;59.63;98861.88;6316281;20;2746128;-59
2022/06/21 02:33:33;;;;;;;;;10.00;7.00;;;;;23.30;60.69;98868.47;6320604;20;2749249;-61
2022/06/21 02:36:28;;;;;;;;;7.00;6.00;;;;;23.18;61.45;98859.97;6314538;20;2732578;-60
2022/06/21 02:39:02;;;;;;;;;9.00;8.00;;;;;23.07;62.33;98858.59;6312448;20;2750332;-60
2022/06/21 02:41:38;;;;;;;;;9.00;8.67;;;;;23.02;62.86;98862.97;6315112;20;2741143;-59
2022/06/21 02:44:37;;;;;;;;;9.00;9.00;;;;;22.93;63.89;98860.31;6317963;20;2745070;-61
2022/06/21 02:47:20;;;;;;;;;10.00;9.00;;;;;22.82;64.25;98855.31;6311918;20;2761780;-59
2022/06/21 02:50:29;;;;;;;;;8.40;7.00;;;;;22.73;65.11;98851.03;6334138;20;2741987;-59
2022/06/21 02:53:01;;;;;;;;;7.40;5.40;;;;;22.54;65.49;98868.91;6305570;20;2746244;-59
2022/06/21 02:55:52;;;;;;;;;10.00;7.33;;;;;22.62;65.56;98867.94;6280249;20;2763852;-59
2022/06/21 02:58:31;;;;;;;;;9.33;9.33;;;;;22.54;65.75;98864.28;6319595;20;2777488;-59
2022/06/21 03:01:06;;;;;;;;;8.67;8.67;;;;;22.63;65.08;98866.91;6313763;20;2744192;-59
2022/06/21 03:03:36;;;;;;;;;9.00;8.00;;;;;22.52;65.29;98876.47;6308459;20;2756491;-59
2022/06/21 03:06:10;;;;;;;;;9.40;9.40;;;;;22.39;65.93;98879.03;6337843;20;2786740;-60
2022/06/21 03:09:03;;;;;;;;;8.50;8.50;;;;;22.41;66.03;98885.13;6288391;20;2711765;-59
2022/06/21 03:11:46;;;;;;;;;8.67;8.67;;;;;22.41;65.73;98898.81;6308281;20;2744029;-60
2022/06/21 03:14:22;;;;;;;;;11.00;10.00;;;;;22.36;66.10;98904.88;6338375;20;2796075;-59
2022/06/21 03:16:53;;;;;;;;;10.00;8.20;;;;;22.25;66.83;98902.59;6304354;20;2773287;-59
2022/06/21 03:19:31;;;;;;;;;8.60;8.60;;;;;22.24;67.17;98911.84;6313210;20;2754445;-60
2022/06/21 03:22:13;;;;;;;;;8.00;8.00;;;;;22.13;67.65;98905.78;6309782;20;2748316;-59
2022/06/21 03:24:42;;;;;;;;;10.67;10.67;;;;;22.12;68.10;98912.28;6288093;20;2786765;-61
2022/06/21 03:27:54;;;;;;;;;10.67;9.00;;;;;21.92;68.90;98917.44;6315614;20;2768053;-62
2022/06/21 03:30:31;;;;;;;;;10.33;10.33;;;;;21.91;69.46;98928.56;6311530;20;3511047;-60
2022/06/21 03:33:03;;;;;;;;;11.00;10.33;;;;;21.87;69.72;98925.34;6320726;20;2790984;-60
2022/06/21 03:35:35;;;;;;;;;9.40;9.40;;;;;21.87;69.01;98925.34;6344788;20;2778398;-59
2022/06/21 03:38:05;;;;;;;;;14.40;10.40;;;;;21.95;69.28;98927.16;6309872;20;2802334;-60
2022/06/21 03:43:36;;;;;;;;;11.20;9.20;;;;;21.97;69.89;98946.97;6309155;20;2781530;-61
2022/06/21 03:46:22;;;;;;;;;11.67;11.67;;;;;21.91;69.59;98951.28;6281147;20;2794015;-60
2022/06/21 03:49:14;;;;;;;;;8.00;8.00;;;;;21.94;69.44;98951.97;6315417;20;2752388;-60
2022/06/21 03:51:46;;;;;;;;;12.33;12.33;;;;;22.02;69.06;98960.91;6316128;20;2786918;-60
2022/06/21 03:54:37;;;;;;;;;10.67;10.00;;;;;22.01;69.72;98963.81;6316199;20;2791915;-61
2022/06/21 03:57:32;;;;;;;;;12.00;11.00;;;;;22.06;69.41;98969.59;6313897;20;3512336;-60
2022/06/21 04:00:07;;;;;;;;;12.67;10.67;;;;;22.17;68.43;98968.28;6318126;20;2788889;-59
2022/06/21 04:03:02;;;;;;;;;11.00;11.00;;;;;22.07;69.35;98979.50;6312951;20;2790897;-61
2022/06/21 04:05:59;;;;;;;;;11.00;11.00;;;;;22.07;68.39;98977.63;6312909;20;3397149;-63
2022/06/21 04:09:02;;;;;;;;;11.80;11.40;;;;;21.96;68.37;98988.13;6338790;20;2786989;-63
2022/06/21 04:12:25;;;;;;;;;15.67;11.00;;;;;22.08;67.56;98987.50;6282356;20;3534743;-63
2022/06/21 04:15:12;;;;;;;;;7.40;4.40;;;;;21.92;67.15;98990.41;6337075;20;2740903;-60
2022/06/21 04:18:06;;;;;;;;;12.33;10.33;;;;;22.08;66.12;98990.25;6283289;20;3511715;-60
2022/06/21 04:21:08;;;;;;;;;12.00;10.00;;;;;21.96;66.02;98993.59;6320413;20;2796155;-62
2022/06/21 04:23:55;;;;;;;;;7.00;7.00;;;;;21.86;66.09;98991.97;6348563;20;2741935;-61
2022/06/21 04:26:57;;;;;;;;;10.00;10.00;;;;;21.95;66.21;98984.56;6323024;20;2781495;-62
2022/06/21 04:30:17;;;;;;;;;7.00;7.00;;;;;21.89;65.81;98990.78;6344666;20;2734641;-61
2022/06/21 04:33:17;;;;;;;;;8.00;6.67;;;;;21.85;65.07;98983.97;6323835;20;2741941;-62
2022/06/21 04:36:32;;;;;;;;;7.40;6.20;;;;;21.86;63.08;98982.94;6344524;20;2733620;-61
2022/06/21 04:39:24;;;;;;;;;7.33;7.33;;;;;22.12;62.87;98969.69;6330786;20;2736748;-61
2022/06/21 04:42:06;;;;;;;;;7.67;7.00;;;;;22.01;61.26;98989.31;6324591;20;2733660;-63
2022/06/21 04:45:25;;;;;;;;;7.20;6.00;;;;;21.85;61.53;98984.84;6344158;20;2738777;-63
2022/06/21 04:48:39;;;;;;;;;7.20;4.60;;;;;21.94;60.57;98993.81;6314574;20;2734827;-62
2022/06/21 04:51:23;;;;;;;;;4.20;4.20;;;;;22.07;59.23;98996.75;6343522;20;2736834;-62
2022/06/21 04:54:13;;;;;;;;;5.00;5.00;;;;;22.33;57.76;99003.72;6344295;20;2733617;-62
2022/06/21 04:57:06;;;;;;;;;9.20;6.40;;;;;22.06;57.73;99014.16;6342926;20;2746121;-61
2022/06/21 05:00:10;;;;;;;;;6.00;6.00;;;;;22.04;57.59;99015.41;6312254;20;2741916;-62
2022/06/21 05:02:46;;;;;;;;;6.67;5.00;;;;;22.02;57.27;99012.84;6319761;20;2745047;-61
2022/06/21 05:05:29;;;;;;;;;4.00;3.00;;;;;22.22;56.24;99010.50;6344330;20;2739912;-62
2022/06/21 05:08:17;;;;;;;;;5.00;5.00;;;;;22.27;55.41;99018.13;6322042;20;2745442;-61
2022/06/21 05:10:54;;;;;;;;;4.00;4.00;;;;;22.18;54.59;99017.31;6342451;20;2747174;-62
2022/06/21 05:13:56;;;;;;;;;4.00;4.00;;;;;22.31;54.32;99033.97;6311038;20;2745080;-62
2022/06/21 05:16:39;;;;;;;;;5.60;4.00;;;;;22.45;52.94;99036.91;6339983;20;2746186;-61
2022/06/21 05:19:27;;;;;;;;;5.67;4.33;;;;;22.77;52.03;99041.19;6289183;20;2747165;-61
2022/06/21 05:22:09;;;;;;;;;4.00;4.00;;;;;23.02;51.45;99055.47;6318215;20;2754451;-61
2022/06/21 05:24:39;;;;;;;;;4.00;4.00;;;;;22.98;51.29;99052.25;6340891;20;2753375;-60
2022/06/21 05:27:44;;;;;;;;;4.00;4.00;;;;;22.76;49.83;99043.06;6314261;20;2746075;-62
2022/06/21 05:30:22;;;;;;;;;4.67;4.67;;;;;23.35;48.89;99052.28;6294320;20;2744482;-60
2022/06/21 05:32:58;;;;;;;;;6.20;5.20;;;;;23.33;47.63;99049.75;6340650;20;2747140;-59
2022/06/21 05:35:33;;;;;;;;;3.60;3.60;;;;;23.32;46.22;99053.53;6312680;20;2737750;-56
2022/06/21 05:38:31;;;;;;;;;3.40;3.40;;;;;23.29;46.00;99053.06;6340467;20;2738207;-59
2022/06/21 05:41:29;;;;;;;;;2.60;2.60;;;;;23.49;44.57;99064.28;6338883;20;2740408;-60
2022/06/21 05:44:12;;;;;;;;;4.00;4.00;;;;;23.42;44.07;99048.59;6343005;20;2754520;-62
2022/06/21 05:46:50;;;;;;;;;2.80;2.00;;;;;23.92;43.11;99050.63;6313732;20;2724328;-54
2022/06/21 05:49:23;;;;;;;;;2.00;2.00;;;;;23.70;42.75;99061.56;6341763;20;2742951;-58
2022/06/21 05:51:57;;;;;;;;;3.00;3.00;;;;;23.71;42.29;99057.75;6342597;20;2742962;-59
2022/06/21 05:54:41;;;;;;;;;3.60;3.00;;;;;23.62;43.00;99064.44;6342240;20;2736710;-60
2022/06/21 05:57:19;;;;;;;;;3.00;3.00;;;;;24.07;41.68;99059.63;6342913;20;2739852;-57
2022/06/21 05:59:49;;;;;;;;;2.00;2.00;;;;;24.00;41.33;99051.34;6341650;20;2741903;-60
2022/06/21 06:02:44;;;;;;;;;2.25;2.25;;;;;23.75;40.85;99053.63;6329582;20;2620073;-63
2022/06/21 06:05:35;;;;;;;;;3.00;2.00;;;;;24.05;39.14;99064.47;6317295;20;2748202;-62
2022/06/21 06:08:24;;;;;;;;;1.80;1.80;;;;;23.74;38.10;99060.16;6339774;20;2730493;-63
2022/06/21 06:10:57;;;;;;;;;0.00;0.00;;;;;24.31;37.39;99061.94;6342059;20;2736698;-62
2022/06/21 06:13:38;;;;;;;;;4.80;1.40;;;;;24.68;35.48;99070.91;6342060;20;2748188;-63
2022/06/21 06:16:37;;;;;;;;;1.00;1.00;;;;;24.62;34.79;99079.97;6311878;20;2727352;-62
2022/06/21 06:19:34;;;;;;;;;1.20;1.00;;;;;24.63;33.23;99089.03;6342027;20;2726298;-62
2022/06/21 06:22:34;;;;;;;;;5.80;2.20;;;;;24.47;31.39;99085.53;6338683;20;2758598;-62
2022/06/21 06:25:17;;;;;;;;;0.00;0.00;;;;;24.92;30.57;99090.72;6309397;20;2732537;-52
2022/06/21 06:28:18;;;;;;;;;2.80;2.80;;;;;24.46;30.70;99093.97;6339764;20;2740271;-60
2022/06/21 06:31:02;;;;;;;;;7.00;4.00;;;;;24.99;29.67;99094.34;6302913;20;2748261;-58
2022/06/21 06:33:46;;;;;;;;;0.40;0.40;;;;;25.19;28.60;99095.31;6340910;20;2730532;-55
2022/06/21 06:37:12;;;;;;;;;1.20;1.20;;;;;25.26;28.29;99094.53;6341212;20;2732569;-56
2022/06/21 06:39:41;;;;;;;;;4.80;3.20;;;;;25.41;26.92;99106.25;6338754;20;2748313;-54
2022/06/21 06:42:29;;;;;;;;;2.00;0.40;;;;;25.75;26.71;99104.44;6310545;20;2728468;-59
2022/06/21 06:45:14;;;;;;;;;0.60;0.60;;;;;26.00;26.04;99102.00;6342708;20;2727353;-54
2022/06/21 06:47:51;;;;;;;;;1.00;1.00;;;;;25.94;25.57;99108.34;6339699;20;2723287;-52
2022/06/21 06:50:56;;;;;;;;;2.00;1.00;;;;;25.56;25.20;99112.41;6338841;20;2732569;-56
2022/06/21 06:53:40;;;;;;;;;3.67;3.67;;;;;25.19;24.85;99110.97;6314250;20;2756505;-58
2022/06/21 06:56:22;;;;;;;;;6.00;5.00;;;;;26.25;24.89;99110.50;6340125;20;2734630;-58
2022/06/21 06:59:01;;;;;;;;;1.00;1.00;;;;;25.99;25.60;99111.31;6339789;20;2727401;-59
2022/06/21 07:02:29;;;;;;;;;2.20;0.20;;;;;25.80;25.86;99111.03;6336199;20;2735838;-54
2022/06/21 07:05:14;;;;;;;;;1.00;0.80;;;;;26.27;25.77;99102.88;6330388;20;2733654;-55
2022/06/21 07:07:53;;;;;;;;;2.00;0.00;;;;;26.18;24.14;99104.16;6341098;20;2735683;-58
2022/06/21 07:10:26;;;;;;;;;1.67;1.00;;;;;25.69;24.34;99099.78;6320783;20;2723212;-56
2022/06/21 07:12:57;;;;;;;;;1.00;1.00;;;;;26.55;23.49;99118.41;6344631;20;2727791;-60
2022/06/21 07:15:40;;;;;;;;;0.80;0.80;;;;;26.86;23.87;99124.09;6343040;20;2733605;-56
2022/06/21 07:18:47;;;;;;;;;0.60;0.60;;;;;26.76;23.64;99122.84;6339286;20;2729456;-60
2022/06/21 07:21:19;;;;;;;;;0.20;0.20;;;;;26.23;25.01;99121.72;6303836;20;2731492;-58
2022/06/21 07:23:52;;;;;;;;;3.60;2.60;;;;;26.39;23.59;99120.47;6337065;20;2750270;-58
2022/06/21 07:26:53;;;;;;;;;4.00;0.80;;;;;26.53;24.57;99123.25;6306841;20;2733582;-57
2022/06/21 07:30:00;;;;;;;;;3.60;1.00;;;;;26.76;24.16;99137.44;6338644;20;2722191;-57
2022/06/21 07:32:58;;;;;;;;;0.40;0.00;;;;;26.85;24.26;99133.41;6340832;20;2735704;-58
2022/06/21 07:35:39;;;;;;;;;0.80;0.80;;;;;26.57;25.26;99125.38;6340781;20;2728407;-57
2022/06/21 07:38:34;;;;;;;;;1.00;1.00;;;;;26.27;25.87;99130.41;6340009;20;2724289;-56
2022/06/21 07:41:25;;;;;;;;;1.00;1.00;;;;;26.54;24.98;99156.09;6337285;20;2733591;-57
2022/06/21 07:44:03;;;;;;;;;3.00;0.00;;;;;26.02;24.32;99131.00;6314951;20;2735697;-57
2022/06/21 07:46:51;;;;;;;;;1.00;1.00;;;;;26.39;24.73;99139.75;6340723;20;2737819;-57
2022/06/21 07:49:50;;;;;;;;;4.00;1.00;;;;;25.98;25.10;99153.63;6338118;20;2734614;-57
2022/06/21 07:53:05;;;;;;;;;1.80;1.00;;;;;25.74;25.09;99144.00;6340256;20;2723152;-58
2022/06/21 07:56:08;;;;;;;;;2.20;1.20;;;;;25.88;24.91;99151.25;6338981;20;2733777;-56
2022/06/21 07:59:04;;;;;;;;;1.80;1.00;;;;;25.70;25.59;99148.19;6338273;20;2727366;-56
2022/06/21 08:09:11;;;;;;;;;3.40;2.00;;;;;25.27;25.37;99156.66;6346439;20;2739838;-56
2022/06/21 08:11:45;;;;;;;;;1.00;1.00;;;;;25.63;25.34;99151.78;6345309;20;2732580;-55
2022/06/21 08:14:16;;;;;;;;;3.00;3.00;;;;;25.69;25.42;99154.78;6344595;20;2731521;-59
2022/06/21 08:17:16;;;;;;;;;3.40;1.80;;;;;25.94;25.50;99168.88;6342741;20;2734761;-57
2022/06/21 08:20:03;;;;;;;;;12.33;2.67;;;;;25.27;26.11;99156.66;6314856;20;3525292;-55
2022/06/21 08:23:20;;;;;;;;;5.60;1.00;;;;;25.16;27.29;99163.59;6343482;20;2720112;-54
2022/06/21 08:26:04;;;;;;;;;2.00;2.00;;;;;25.73;26.82;99159.66;6344844;20;2746154;-47
2022/06/21 08:29:22;;;;;;;;;3.00;3.00;;;;;26.41;27.09;99176.19;6313931;20;2743004;-51
2022/06/21 08:32:07;;;;;;;;;6.20;3.00;;;;;26.12;26.98;99165.50;6313171;20;2746634;-45
2022/06/21 08:34:52;;;;;;;;;5.00;2.00;;;;;25.94;26.47;99177.97;6312016;20;2743994;-49
2022/06/21 08:37:49;;;;;;;;;1.20;1.20;;;;;25.25;27.36;99164.25;6312534;20;2721185;-50
2022/06/21 08:40:49;;;;;;;;;3.00;1.40;;;;;25.70;27.45;99164.69;6345248;20;2729561;-49
2022/06/21 08:44:33;;;;;;;;;2.00;2.00;;;;;25.66;26.94;99160.69;6343438;20;2744173;-48
2022/06/21 08:47:40;;;;;;;;;1.67;1.67;;;;;25.83;26.52;99176.63;6290588;20;2730546;-50
2022/06/21 08:51:21;;;;;;;;;4.67;4.00;;;;;26.10;27.70;99189.66;6317909;20;2751280;-51
2022/06/21 08:54:30;;;;;;;;;1.00;1.00;;;;;25.99;27.34;99191.09;6320721;20;2739861;-50
2022/06/21 08:57:16;;;;;;;;;1.80;1.80;;;;;26.58;27.50;99195.06;6341620;20;2739826;-47
2022/06/21 09:00:11;;;;;;;;;2.00;2.00;;;;;26.85;26.50;99207.78;6312177;20;2739929;-48
2022/06/21 09:03:18;;;;;;;;;12.00;4.00;;;;;26.49;27.18;99198.00;6285703;20;2789845;-48
2022/06/21 09:06:18;;;;;;;;;1.00;1.00;;;;;26.83;25.90;99207.19;6289574;20;2729447;-51
2022/06/21 09:08:59;;;;;;;;;0.80;0.80;;;;;27.11;26.30;99197.81;6344602;20;2721111;-48
2022/06/21 09:12:00;;;;;;;;;3.00;1.00;;;;;26.28;25.78;99184.41;6343869;20;2715872;-48
2022/06/21 09:14:46;;;;;;;;;1.40;1.00;;;;;26.44;25.48;99177.66;6343324;20;2729415;-47
2022/06/21 09:17:43;;;;;;;;;1.60;1.00;;;;;26.84;25.05;99191.50;6345878;20;2731506;-47
2022/06/21 09:21:07;;;;;;;;;1.00;1.00;;;;;27.12;24.42;99189.34;6346959;20;2723358;-47
2022/06/21 09:24:03;;;;;;;;;0.80;0.40;;;;;27.52;23.78;99188.44;6342734;20;2735668;-46
2022/06/21 09:26:54;;;;;;;;;1.00;1.00;;;;;27.29;23.14;99197.19;6345152;20;2734808;-49
2022/06/21 09:29:26;;;;;;;;;1.00;1.00;;;;;27.09;23.23;99205.44;6343765;20;2733628;-46
2022/06/21 09:32:19;;;;;;;;;0.60;0.60;;;;;27.31;24.00;99195.91;6343852;20;2727389;-47
2022/06/21 09:35:22;;;;;;;;;7.60;2.00;;;;;27.34;21.22;99208.44;6345934;20;2730485;-49
2022/06/21 09:38:49;;;;;;;;;1.20;0.60;;;;;27.18;20.44;99204.22;6342499;20;2741938;-51
2022/06/21 09:42:17;;;;;;;;;12.00;2.00;;;;;27.25;20.60;99204.19;6288002;20;2621106;-50
2022/06/21 09:45:27;;;;;;;;;0.60;0.60;;;;;27.19;22.36;99203.13;6343457;20;2727355;-46
2022/06/21 09:48:21;;;;;;;;;2.00;2.00;;;;;27.59;23.33;99203.03;6343982;20;2737790;-49
2022/06/21 09:51:35;;;;;;;;;1.00;1.00;;;;;27.65;23.67;99193.06;6310204;20;2726317;-50
2022/06/21 09:54:37;;;;;;;;;1.40;1.40;;;;;27.22;25.17;99199.09;6339262;20;2738837;-49
2022/06/21 09:57:40;;;;;;;;;1.00;1.00;;;;;27.99;24.54;99189.16;6343789;20;2727322;-50
2022/06/21 10:00:50;;;;;;;;;5.00;2.33;;;;;27.72;23.54;99189.22;6315946;20;2740906;-48
2022/06/21 10:03:44;;;;;;;;;3.00;1.00;;;;;26.82;22.98;99201.88;6316115;20;2727401;-51
2022/06/21 10:06:56;;;;;;;;;3.00;1.00;;;;;26.97;23.47;99208.00;6343532;20;2736394;-50
2022/06/21 10:10:07;;;;;;;;;1.00;1.00;;;;;27.39;24.49;99194.00;6341129;20;2724205;-51
2022/06/21 10:13:35;;;;;;;;;2.40;1.00;;;;;27.28;24.41;99192.75;6341971;20;2717137;-55
2022/06/21 10:17:25;;;;;;;;;1.00;1.00;;;;;27.91;24.20;99204.03;6321896;20;2727344;-50
2022/06/21 10:20:28;;;;;;;;;2.20;1.00;;;;;27.99;24.78;99186.41;6343281;20;2726370;-58
2022/06/21 10:23:58;;;;;;;;;2.00;1.00;;;;;28.20;24.09;99187.94;6341821;20;2716921;-55
2022/06/21 10:27:06;;;;;;;;;1.00;1.00;;;;;28.17;24.02;99180.13;6340186;20;2724393;-58
2022/06/21 10:30:09;;;;;;;;;1.00;1.00;;;;;28.49;24.55;99192.06;6338390;20;2737847;-58
2022/06/21 10:33:23;;;;;;;;;7.67;2.33;;;;;27.95;24.57;99185.13;6318760;20;2779431;-59
2022/06/21 10:36:41;;;;;;;;;1.00;1.00;;;;;27.57;24.27;99191.41;6344395;20;2723261;-58
2022/06/21 10:39:27;;;;;;;;;3.80;1.40;;;;;27.23;24.77;99190.63;6340768;20;2731700;-58
2022/06/21 10:42:48;;;;;;;;;1.00;1.00;;;;;28.48;23.61;99193.13;6342958;20;2733604;-59
2022/06/21 10:45:53;;;;;;;;;1.00;1.00;;;;;27.23;23.47;99185.13;6294012;20;2735879;-59
2022/06/21 10:49:33;;;;;;;;;1.60;1.60;;;;;27.98;23.94;99191.03;6344316;20;2739953;-59
2022/06/21 10:52:56;;;;;;;;;1.00;1.00;;;;;27.29;23.12;99194.44;6338709;20;2724280;-59
2022/06/21 11:03:39;;;;;;;;;2.80;1.60;;;;;27.82;23.33;99193.47;6340818;20;2746123;-57
2022/06/21 11:06:24;;;;;;;;;2.20;1.80;;;;;27.88;23.81;99184.31;6312626;20;2740465;-58
2022/06/21 11:09:20;;;;;;;;;1.00;1.00;;;;;27.41;24.32;99191.84;6310633;20;2736780;-58
2022/06/21 11:11:58;;;;;;;;;2.00;2.00;;;;;27.29;22.67;99189.78;6343404;20;1908591;-58
2022/06/21 11:15:28;;;;;;;;;1.20;1.20;;;;;27.70;23.65;99196.88;6309421;20;2725326;-57
2022/06/21 11:18:24;;;;;;;;;1.80;0.60;;;;;27.57;22.99;99191.41;6341335;20;2733608;-57
2022/06/21 11:21:37;;;;;;;;;0.00;0.00;;;;;27.77;23.32;99196.84;6341645;20;2723196;-58
2022/06/21 11:24:42;;;;;;;;;1.60;0.60;;;;;27.31;24.11;99200.59;6341661;20;2739855;-58
2022/06/21 11:27:45;;;;;;;;;1.00;1.00;;;;;27.81;24.21;99189.88;6313067;20;2730469;-58
2022/06/21 11:30:20;;;;;;;;;0.60;0.00;;;;;28.64;23.38;99203.63;6342856;20;2727418;-58
2022/06/21 11:33:25;;;;;;;;;4.40;1.40;;;;;27.68;22.47;99201.75;6342301;20;2747125;-58
2022/06/21 11:36:39;;;;;;;;;1.00;1.00;;;;;27.41;22.96;99206.50;6308284;20;2721127;-58
2022/06/21 11:40:21;;;;;;;;;4.00;1.00;;;;;27.43;23.42;99206.28;6339323;20;2724200;-58
2022/06/21 11:42:55;;;;;;;;;2.00;1.00;;;;;27.70;24.02;99207.91;6342644;20;2725255;-58
2022/06/21 11:45:49;;;;;;;;;1.60;1.00;;;;;27.67;24.14;99202.81;6342605;20;2726297;-58
2022/06/21 11:48:50;;;;;;;;;2.00;1.00;;;;;27.93;24.13;99209.31;6347978;20;2729410;-58
2022/06/21 11:51:57;;;;;;;;;12.67;3.67;;;;;27.14;23.55;99200.16;6318907;20;3517915;-58
2022/06/21 11:54:41;;;;;;;;;4.40;3.40;;;;;27.08;23.41;99203.75;6345640;20;2744007;-57
2022/06/21 11:58:04;;;;;;;;;9.80;3.00;;;;;27.39;24.11;99194.84;6312318;20;2780449;-59
2022/06/21 12:01:21;;;;;;;;;2.00;2.00;;;;;27.08;23.48;99201.84;6311684;20;2733608;-59
2022/06/21 12:04:29;;;;;;;;;13.00;9.00;;;;;26.90;22.56;99196.97;6314320;20;3501262;-59
2022/06/21 12:07:26;;;;;;;;;5.20;3.20;;;;;27.23;22.57;99190.63;6343271;20;2742971;-59
2022/06/21 12:10:21;;;;;;;;;6.20;4.00;;;;;27.67;23.94;99201.97;6314121;20;2750287;-58
2022/06/21 12:13:17;;;;;;;;;2.00;2.00;;;;;27.41;23.47;99197.38;6312603;20;2738834;-57
2022/06/21 12:16:28;;;;;;;;;3.00;1.80;;;;;27.22;23.63;99199.94;6345601;20;2750654;-59
2022/06/21 12:19:12;;;;;;;;;1.00;1.00;;;;;27.10;23.32;99209.91;6311278;20;2727352;-59
2022/06/21 12:21:57;;;;;;;;;5.67;2.33;;;;;27.19;24.05;99211.41;6315320;20;2747138;-59
2022/06/21 12:24:28;;;;;;;;;2.67;1.00;;;;;27.03;23.44;99203.56;6328125;20;2716968;-59
2022/06/21 12:26:57;;;;;;;;;5.20;1.00;;;;;27.16;24.07;99198.03;6342544;20;2721615;-57
2022/06/21 12:29:28;;;;;;;;;1.40;1.40;;;;;27.10;25.27;99198.91;6343823;20;2729452;-59
2022/06/21 12:32:01;;;;;;;;;2.40;2.00;;;;;26.60;25.02;99180.03;6344727;20;2747190;-59
2022/06/21 12:34:55;;;;;;;;;0.40;0.40;;;;;27.01;24.19;99180.88;6312648;20;2726431;-57
2022/06/21 12:37:53;;;;;;;;;1.40;1.00;;;;;26.83;25.42;99193.41;6346696;20;2739868;-58
2022/06/21 12:40:38;;;;;;;;;2.00;1.00;;;;;26.87;25.38;99191.91;6344552;20;2726416;-59
2022/06/21 12:43:39;;;;;;;;;2.20;0.80;;;;;26.30;24.32;99178.69;6344476;20;2732611;-56
2022/06/21 12:46:49;;;;;;;;;1.00;1.00;;;;;26.83;25.70;99178.75;6340071;20;1897174;-58
2022/06/21 12:50:08;;;;;;;;;1.20;1.20;;;;;26.71;27.22;99181.31;6313679;20;2729449;-58
2022/06/21 12:53:23;;;;;;;;;1.80;1.00;;;;;27.99;25.89;99162.41;6346584;20;2726339;-58
2022/06/21 12:56:15;;;;;;;;;6.67;3.00;;;;;27.31;25.07;99173.03;6323579;20;2748262;-59
2022/06/21 12:59:24;;;;;;;;;1.50;1.50;;;;;27.31;25.68;99171.09;6347147;20;2737782;-58
2022/06/21 13:02:53;;;;;;;;;1.00;1.00;;;;;27.19;24.51;99169.22;6315974;20;2728357;-59
2022/06/21 13:06:14;;;;;;;;;1.00;1.00;;;;;27.09;24.94;99167.75;6342477;20;2732013;-58
2022/06/21 13:09:54;;;;;;;;;1.00;1.00;;;;;27.16;25.12;99173.22;6344092;20;2721136;-58
2022/06/21 13:13:26;;;;;;;;;1.00;1.00;;;;;27.16;25.96;99159.44;6341569;20;2735755;-59
2022/06/21 13:16:22;;;;;;;;;2.00;1.00;;;;;27.27;25.20;99164.31;6341452;20;2735664;-60
2022/06/21 13:19:23;;;;;;;;;3.20;0.00;;;;;27.62;25.79;99160.41;6343296;20;2725398;-59
2022/06/21 13:22:20;;;;;;;;;1.20;1.20;;;;;27.45;25.43;99160.03;6345492;20;2735747;-59
2022/06/21 13:25:09;;;;;;;;;1.00;1.00;;;;;27.10;25.27;99171.34;6341956;20;2727503;-58
2022/06/21 13:27:53;;;;;;;;;1.00;1.00;;;;;27.27;24.57;99164.31;6345809;20;2727347;-58